Time;durP1;ratioP1;P1;durP2;ratioP2;P2;SDS_P1;SDS_P2;PMS_P1;PMS_P2;Temp;Humidity;BMP_temperature;BMP_pressure;BME280_temperature;BME280_humidity;BME280_pressure;Samples;Min_cycle;Max_cycle;Signal;HPM_P1;HPM_P2
2022/11/16 00:00:17;;;;;;;14.95;10.18;;;;;;;;;;5077967;28;20048;-92
2022/11/16 00:02:44;;;;;;;19.90;10.45;;;;;;;;;;5077489;28;20507;-91
2022/11/16 00:05:12;;;;;;;13.00;9.35;;;;;;;;;;5077624;28;20048;-92
2022/11/16 00:07:39;;;;;;;15.02;9.50;;;;;;;;;;5095222;28;20380;-91
2022/11/16 00:10:07;;;;;;;16.25;9.77;;;;;;;;;;5077497;28;20051;-92
2022/11/16 00:12:35;;;;;;;16.25;9.77;;;;;;;;;;5060805;28;20143;-91
2022/11/16 00:15:03;;;;;;;13.07;9.23;;;;;;;;;;5077152;28;20063;-92
2022/11/16 00:17:30;;;;;;;14.25;9.75;;;;;;;;;;5095032;28;20044;-92
2022/11/16 00:19:58;;;;;;;11.90;8.98;;;;;;;;;;5077561;28;20080;-90
2022/11/16 00:22:25;;;;;;;16.25;10.52;;;;;;;;;;5094944;28;20048;-91
2022/11/16 00:24:52;;;;;;;14.93;10.80;;;;;;;;;;5077546;28;20139;-91
2022/11/16 00:27:19;;;;;;;15.32;10.23;;;;;;;;;;5076910;28;20048;-91
2022/11/16 00:29:47;;;;;;;14.88;9.23;;;;;;;;;;5076972;28;20410;-91
2022/11/16 00:32:14;;;;;;;14.85;9.43;;;;;;;;;;5077074;28;20059;-91
2022/11/16 00:34:41;;;;;;;12.50;9.27;;;;;;;;;;5094892;28;20044;-91
2022/11/16 00:37:08;;;;;;;12.95;9.27;;;;;;;;;;5095102;28;20057;-91
2022/11/16 00:39:38;;;;;;;10.02;8.05;;;;;;;;;;5076846;28;20496;-91
2022/11/16 00:42:06;;;;;;;11.40;7.88;;;;;;;;;;5076601;28;20054;-91
2022/11/16 00:44:33;;;;;;;10.85;8.13;;;;;;;;;;5076980;28;20047;-91
2022/11/16 00:47:00;;;;;;;18.60;8.05;;;;;;;;;;5076942;28;20048;-91
2022/11/16 00:49:27;;;;;;;14.98;9.13;;;;;;;;;;5094529;28;20474;-91
2022/11/16 00:51:54;;;;;;;14.18;9.15;;;;;;;;;;5094832;28;20417;-91
2022/11/16 00:54:22;;;;;;;11.85;8.70;;;;;;;;;;5094349;28;20044;-90
2022/11/16 00:56:49;;;;;;;11.85;8.60;;;;;;;;;;5076384;28;20056;-91
2022/11/16 00:59:16;;;;;;;16.83;9.13;;;;;;;;;;5076514;28;20050;-91
2022/11/16 01:01:43;;;;;;;13.82;8.20;;;;;;;;;;5076782;28;20048;-91
2022/11/16 01:04:11;;;;;;;12.75;7.85;;;;;;;;;;5076716;28;20052;-91
2022/11/16 01:06:38;;;;;;;11.13;8.63;;;;;;;;;;5076638;28;20044;-91
2022/11/16 01:09:05;;;;;;;11.13;8.85;;;;;;;;;;5076323;28;20054;-91
2022/11/16 01:14:18;;;;;;;10.95;8.52;;;;;;;;;;5094143;28;20486;-91
2022/11/16 01:16:48;;;;;;;10.90;8.05;;;;;;;;;;5076419;28;20411;-91
2022/11/16 01:19:15;;;;;;;11.23;7.45;;;;;;;;;;5076326;28;20051;-91
2022/11/16 01:21:42;;;;;;;12.07;8.05;;;;;;;;;;5076293;28;20059;-91
2022/11/16 01:24:10;;;;;;;11.90;8.20;;;;;;;;;;5076282;28;20510;-91
2022/11/16 01:26:37;;;;;;;14.18;8.25;;;;;;;;;;5076460;28;20048;-91
2022/11/16 01:29:04;;;;;;;11.40;8.60;;;;;;;;;;5076159;28;20055;-91
2022/11/16 01:31:31;;;;;;;14.60;8.45;;;;;;;;;;5075992;28;20052;-91
2022/11/16 01:33:58;;;;;;;13.88;8.07;;;;;;;;;;5076181;28;20048;-91
2022/11/16 01:36:26;;;;;;;11.77;8.65;;;;;;;;;;5092484;28;20052;-91
2022/11/16 01:38:53;;;;;;;13.80;7.93;;;;;;;;;;5076126;28;20476;-91
2022/11/16 01:41:22;;;;;;;15.93;7.35;;;;;;;;;;5075962;28;20051;-91
2022/11/16 01:43:49;;;;;;;14.65;8.90;;;;;;;;;;5080138;28;20055;-91
2022/11/16 01:46:16;;;;;;;10.82;8.20;;;;;;;;;;5094881;28;20048;-91
2022/11/16 01:48:45;;;;;;;12.30;7.35;;;;;;;;;;5075928;28;20480;-92
2022/11/16 01:51:12;;;;;;;15.23;7.45;;;;;;;;;;5093620;28;20074;-92
2022/11/16 01:53:39;;;;;;;14.45;8.23;;;;;;;;;;5076226;28;20044;-91
2022/11/16 01:56:07;;;;;;;11.68;7.60;;;;;;;;;;5075936;28;20539;-91
2022/11/16 01:58:34;;;;;;;11.32;7.68;;;;;;;;;;5093863;28;20130;-91
2022/11/16 02:01:02;;;;;;;9.50;7.82;;;;;;;;;;5093435;28;20044;-91
2022/11/16 02:03:29;;;;;;;10.65;6.75;;;;;;;;;;5075754;28;20052;-91
2022/11/16 02:05:57;;;;;;;11.38;7.00;;;;;;;;;;5093093;28;20051;-92
2022/11/16 02:11:37;;;;;;;12.68;7.13;;;;;;;;;;5097278;28;20056;-91
2022/11/16 02:14:18;;;;;;;12.32;6.82;;;;;;;;;;5079884;28;20051;-91
2022/11/16 02:16:51;;;;;;;9.65;7.22;;;;;;;;;;5097645;28;20044;-91
2022/11/16 02:19:21;;;;;;;8.57;6.85;;;;;;;;;;5079622;28;20048;-92
2022/11/16 02:21:54;;;;;;;11.85;7.10;;;;;;;;;;5079661;28;20059;-91
2022/11/16 02:24:40;;;;;;;10.88;7.00;;;;;;;;;;5079501;28;20522;-91
2022/11/16 02:27:15;;;;;;;8.93;6.38;;;;;;;;;;5079626;28;20063;-91
2022/11/16 02:29:43;;;;;;;9.25;6.72;;;;;;;;;;5097294;28;20131;-92
2022/11/16 02:32:18;;;;;;;12.18;6.43;;;;;;;;;;5079144;28;20048;-91
2022/11/16 02:34:48;;;;;;;20.55;7.47;;;;;;;;;;5079292;28;20045;-91
2022/11/16 02:37:18;;;;;;;16.67;7.28;;;;;;;;;;5079294;28;20043;-91
2022/11/16 02:39:47;;;;;;;15.05;7.93;;;;;;;;;;5096861;28;20044;-91
2022/11/16 02:42:18;;;;;;;14.02;7.03;;;;;;;;;;5079284;28;20330;-91
2022/11/16 02:44:47;;;;;;;21.88;7.07;;;;;;;;;;5078922;28;20048;-91
2022/11/16 02:47:17;;;;;;;11.93;7.20;;;;;;;;;;5079280;28;20415;-92
2022/11/16 02:49:47;;;;;;;12.73;6.68;;;;;;;;;;5096838;28;20059;-91
2022/11/16 02:52:15;;;;;;;12.43;7.20;;;;;;;;;;5079027;28;20063;-91
2022/11/16 02:54:42;;;;;;;10.90;6.40;;;;;;;;;;5079000;28;20066;-91
2022/11/16 02:57:09;;;;;;;10.65;6.20;;;;;;;;;;5078814;28;20052;-92
2022/11/16 02:59:39;;;;;;;11.23;6.40;;;;;;;;;;5079247;28;20044;-91
2022/11/16 03:02:24;;;;;;;8.70;6.28;;;;;;;;;;5096768;28;20090;-91
2022/11/16 03:04:54;;;;;;;13.32;6.47;;;;;;;;;;5096383;28;20040;-91
2022/11/16 03:07:25;;;;;;;17.90;7.25;;;;;;;;;;5078719;28;20059;-91
2022/11/16 03:09:54;;;;;;;17.95;7.00;;;;;;;;;;5096603;28;20054;-91
2022/11/16 03:12:25;;;;;;;16.38;6.95;;;;;;;;;;5078360;28;20064;-91
2022/11/16 03:14:55;;;;;;;10.68;6.50;;;;;;;;;;5096475;28;20393;-91
2022/11/16 03:17:31;;;;;;;9.70;6.22;;;;;;;;;;5078557;28;20044;-91
2022/11/16 03:19:59;;;;;;;7.97;5.95;;;;;;;;;;5096072;28;20048;-91
2022/11/16 03:22:30;;;;;;;10.73;6.15;;;;;;;;;;5095954;28;20052;-91
2022/11/16 03:24:57;;;;;;;9.68;6.15;;;;;;;;;;5078252;28;20388;-91
2022/11/16 03:27:47;;;;;;;9.07;6.55;;;;;;;;;;5078429;28;20057;-91
2022/11/16 03:30:21;;;;;;;12.75;6.78;;;;;;;;;;5078663;28;20468;-91
2022/11/16 03:33:13;;;;;;;7.88;5.85;;;;;;;;;;5095894;28;20491;-90
2022/11/16 03:35:47;;;;;;;11.82;6.70;;;;;;;;;;5096074;28;20476;-91
2022/11/16 03:38:15;;;;;;;10.02;6.50;;;;;;;;;;5078576;28;20059;-91
2022/11/16 03:40:44;;;;;;;11.02;6.57;;;;;;;;;;5078350;28;20048;-91
2022/11/16 03:43:11;;;;;;;9.07;6.90;;;;;;;;;;5077851;28;20056;-91
2022/11/16 03:45:39;;;;;;;11.07;6.70;;;;;;;;;;5095741;28;20119;-91
2022/11/16 03:48:06;;;;;;;10.93;6.82;;;;;;;;;;5095826;28;20063;-90
2022/11/16 03:50:34;;;;;;;10.77;7.03;;;;;;;;;;5095629;28;20048;-91
2022/11/16 03:53:01;;;;;;;11.30;6.93;;;;;;;;;;5077971;28;20080;-91
2022/11/16 03:55:28;;;;;;;14.35;7.65;;;;;;;;;;5095339;28;20048;-91
2022/11/16 03:57:56;;;;;;;11.48;7.28;;;;;;;;;;5078141;28;20048;-91
2022/11/16 04:00:23;;;;;;;13.68;6.95;;;;;;;;;;5078047;28;20059;-91
2022/11/16 04:02:50;;;;;;;9.30;7.30;;;;;;;;;;5078086;28;20052;-91
2022/11/16 04:24:46;;;;;;;9.45;6.82;;;;;;;;;;5095156;28;20547;-91
2022/11/16 04:30:02;;;;;;;11.07;8.57;;;;;;;;;;5095093;28;20291;-91
2022/11/16 04:38:01;;;;;;;10.18;7.03;;;;;;;;;;5094797;28;20062;-91
2022/11/16 04:40:28;;;;;;;15.95;8.07;;;;;;;;;;5076952;28;20044;-91
2022/11/16 04:42:57;;;;;;;20.90;8.23;;;;;;;;;;5077807;28;20052;-91
2022/11/16 04:48:11;;;;;;;9.25;7.22;;;;;;;;;;5094409;28;20040;-91
2022/11/16 04:50:39;;;;;;;13.40;7.05;;;;;;;;;;5076663;28;20076;-89
2022/11/16 04:53:07;;;;;;;13.55;7.40;;;;;;;;;;5076731;28;20059;-92
2022/11/16 04:55:34;;;;;;;12.05;6.97;;;;;;;;;;5076746;28;20048;-90
2022/11/16 04:58:02;;;;;;;15.48;7.32;;;;;;;;;;5076580;28;20044;-90
2022/11/16 05:00:29;;;;;;;12.50;7.10;;;;;;;;;;5076331;28;20044;-91
2022/11/16 05:02:57;;;;;;;12.75;7.50;;;;;;;;;;5076650;28;20530;-91
2022/11/16 05:05:27;;;;;;;9.20;6.82;;;;;;;;;;5094758;28;20052;-91
2022/11/16 05:07:55;;;;;;;17.17;7.57;;;;;;;;;;5076847;28;20507;-91
2022/11/16 05:10:22;;;;;;;10.77;6.88;;;;;;;;;;5076544;28;20055;-91
2022/11/16 05:12:49;;;;;;;13.07;7.18;;;;;;;;;;5076286;28;20055;-91
2022/11/16 05:15:18;;;;;;;12.82;6.88;;;;;;;;;;5076825;28;20055;-91
2022/11/16 05:17:46;;;;;;;14.40;8.25;;;;;;;;;;5076683;28;20083;-91
2022/11/16 05:22:59;;;;;;;23.40;7.88;;;;;;;;;;5094380;28;20055;-91
2022/11/16 05:25:26;;;;;;;12.43;8.60;;;;;;;;;;5093977;28;20048;-91
2022/11/16 05:27:59;;;;;;;17.73;11.80;;;;;;;;;;5077054;28;20135;-93
2022/11/16 05:30:28;;;;;;;16.63;10.98;;;;;;;;;;5077382;28;20054;-93
2022/11/16 05:32:55;;;;;;;15.30;10.05;;;;;;;;;;5094701;28;20561;-92
2022/11/16 05:35:22;;;;;;;14.73;9.73;;;;;;;;;;5077415;28;20488;-91
2022/11/16 05:37:50;;;;;;;12.32;9.35;;;;;;;;;;5076528;28;20044;-92
2022/11/16 05:40:17;;;;;;;13.23;9.40;;;;;;;;;;5076162;28;20408;-93
2022/11/16 05:42:44;;;;;;;11.45;9.27;;;;;;;;;;5075836;28;20052;-92
2022/11/16 05:45:11;;;;;;;13.07;8.93;;;;;;;;;;5076460;28;20054;-90
2022/11/16 05:47:45;;;;;;;14.45;9.52;;;;;;;;;;5077499;28;20111;-92
2022/11/16 05:50:12;;;;;;;13.63;9.77;;;;;;;;;;5075924;28;20048;-92
2022/11/16 05:52:40;;;;;;;16.38;10.25;;;;;;;;;;5076276;28;20044;-90
2022/11/16 05:55:07;;;;;;;14.25;10.02;;;;;;;;;;5076335;28;20066;-94
2022/11/16 05:57:35;;;;;;;17.15;10.52;;;;;;;;;;5076081;28;20055;-91
2022/11/16 06:00:02;;;;;;;17.38;10.38;;;;;;;;;;5076232;28;20054;-91
2022/11/16 06:02:31;;;;;;;17.52;10.20;;;;;;;;;;5076041;28;20054;-91
2022/11/16 06:04:58;;;;;;;14.43;9.93;;;;;;;;;;5076033;28;20048;-91
2022/11/16 06:07:26;;;;;;;17.40;10.07;;;;;;;;;;5076207;28;20060;-91
2022/11/16 06:09:53;;;;;;;17.25;11.10;;;;;;;;;;5075842;28;20048;-91
2022/11/16 06:12:20;;;;;;;25.65;15.52;;;;;;;;;;5075922;28;20418;-91
2022/11/16 06:14:47;;;;;;;31.10;21.77;;;;;;;;;;5076093;28;20431;-91
2022/11/16 06:17:14;;;;;;;21.65;13.85;;;;;;;;;;5075803;28;20047;-91
2022/11/16 06:19:44;;;;;;;19.13;11.52;;;;;;;;;;5076093;28;20059;-92
2022/11/16 06:22:11;;;;;;;19.42;12.68;;;;;;;;;;5076225;28;20052;-92
2022/11/16 06:24:38;;;;;;;16.60;11.85;;;;;;;;;;5076029;28;20070;-93
2022/11/16 06:27:05;;;;;;;20.85;15.95;;;;;;;;;;5076015;28;20052;-91
2022/11/16 06:29:32;;;;;;;21.92;14.73;;;;;;;;;;5094977;28;20028;-93
2022/11/16 06:32:00;;;;;;;17.10;13.32;;;;;;;;;;5083814;28;20068;-92
2022/11/16 06:34:27;;;;;;;17.58;11.30;;;;;;;;;;5076292;28;20044;-93
2022/11/16 06:36:54;;;;;;;15.70;11.98;;;;;;;;;;5075825;28;20063;-93
2022/11/16 06:39:21;;;;;;;19.70;15.32;;;;;;;;;;5075710;28;20056;-93
2022/11/16 06:41:48;;;;;;;15.68;11.20;;;;;;;;;;5075685;28;20076;-92
2022/11/16 06:44:16;;;;;;;14.38;10.23;;;;;;;;;;5076436;28;20158;-93
2022/11/16 06:46:43;;;;;;;15.18;10.95;;;;;;;;;;5075512;28;20044;-92
2022/11/16 06:49:10;;;;;;;15.10;11.73;;;;;;;;;;5075358;28;20048;-93
2022/11/16 06:51:37;;;;;;;26.63;14.50;;;;;;;;;;5075275;28;20050;-92
2022/11/16 06:54:05;;;;;;;54.95;34.33;;;;;;;;;;5076291;28;20059;-93
2022/11/16 06:56:33;;;;;;;31.08;20.40;;;;;;;;;;5079307;28;20044;-93
2022/11/16 06:59:01;;;;;;;31.13;20.70;;;;;;;;;;5078986;28;20511;-93
2022/11/16 07:01:28;;;;;;;23.35;14.32;;;;;;;;;;5078612;28;20480;-93
2022/11/16 07:03:56;;;;;;;25.95;18.35;;;;;;;;;;5078984;28;20098;-94
2022/11/16 07:06:24;;;;;;;26.17;18.00;;;;;;;;;;5079120;28;20463;-93
2022/11/16 07:08:51;;;;;;;33.70;22.95;;;;;;;;;;5078906;28;20048;-92
2022/11/16 07:11:19;;;;;;;21.95;15.52;;;;;;;;;;5079019;28;20052;-94
2022/11/16 07:13:48;;;;;;;23.88;15.85;;;;;;;;;;5078759;28;20052;-94
2022/11/16 07:16:15;;;;;;;31.92;16.00;;;;;;;;;;5079347;28;20051;-93
2022/11/16 07:18:42;;;;;;;51.90;17.40;;;;;;;;;;5079079;28;20044;-94
2022/11/16 07:21:14;;;;;;;54.05;17.75;;;;;;;;;;5079451;28;20052;-93
2022/11/16 07:23:42;;;;;;;27.35;14.57;;;;;;;;;;5080977;28;20193;-95
2022/11/16 07:26:10;;;;;;;30.73;14.55;;;;;;;;;;5080675;28;20052;-95
2022/11/16 07:28:37;;;;;;;23.80;13.70;;;;;;;;;;5082632;28;20056;-95
2022/11/16 07:31:13;;;;;;;23.13;13.50;;;;;;;;;;5084273;28;20048;-94
2022/11/16 07:33:41;;;;;;;20.88;12.52;;;;;;;;;;5084144;28;20059;-94
2022/11/16 07:36:09;;;;;;;27.33;14.95;;;;;;;;;;5086907;28;20066;-94
2022/11/16 07:38:37;;;;;;;23.15;15.38;;;;;;;;;;5088254;28;20059;-94
2022/11/16 07:41:09;;;;;;;22.58;15.55;;;;;;;;;;5089230;28;20063;-95
2022/11/16 07:43:39;;;;;;;24.85;15.50;;;;;;;;;;5088708;28;20056;-95
2022/11/16 07:46:07;;;;;;;19.63;13.80;;;;;;;;;;5084487;28;20063;-94
2022/11/16 07:48:56;;;;;;;20.83;14.23;;;;;;;;;;5090117;28;20058;-95
2022/11/16 07:51:24;;;;;;;20.45;12.40;;;;;;;;;;5086653;28;20044;-94
2022/11/16 07:53:54;;;;;;;19.77;12.52;;;;;;;;;;5090628;28;20502;-95
2022/11/16 07:56:30;;;;;;;19.27;13.13;;;;;;;;;;5079010;28;20036;-95
2022/11/16 07:59:12;;;;;;;15.23;10.85;;;;;;;;;;5094171;28;20047;-92
2022/11/16 08:01:51;;;;;;;18.10;12.65;;;;;;;;;;5108031;28;20048;-95
2022/11/16 08:04:20;;;;;;;26.90;17.23;;;;;;;;;;5089465;28;20073;-95
2022/11/16 08:06:51;;;;;;;28.17;21.48;;;;;;;;;;5088682;28;20063;-95
2022/11/16 08:09:23;;;;;;;21.63;15.48;;;;;;;;;;5093701;28;20094;-96
2022/11/16 08:12:05;;;;;;;22.58;13.80;;;;;;;;;;5091253;28;20060;-96
2022/11/16 08:14:38;;;;;;;21.15;14.00;;;;;;;;;;5075848;28;20056;-95
2022/11/16 08:17:07;;;;;;;18.15;13.77;;;;;;;;;;5087357;28;20048;-92
2022/11/16 08:19:35;;;;;;;17.88;13.77;;;;;;;;;;5084365;28;20051;-95
2022/11/16 08:22:03;;;;;;;22.48;14.57;;;;;;;;;;5086794;28;20088;-95
2022/11/16 08:24:30;;;;;;;19.33;13.15;;;;;;;;;;5082062;28;20094;-95
2022/11/16 08:26:58;;;;;;;15.65;12.20;;;;;;;;;;5085441;28;20443;-95
2022/11/16 08:29:25;;;;;;;18.95;12.93;;;;;;;;;;5081820;28;20045;-96
2022/11/16 08:31:53;;;;;;;18.10;13.07;;;;;;;;;;5086712;28;20044;-95
2022/11/16 08:34:20;;;;;;;19.38;12.70;;;;;;;;;;5085450;28;20049;-95
2022/11/16 08:36:49;;;;;;;16.77;12.02;;;;;;;;;;5082581;28;20131;-95
2022/11/16 08:39:16;;;;;;;16.80;12.13;;;;;;;;;;5087855;28;20044;-96
2022/11/16 08:41:44;;;;;;;18.35;11.95;;;;;;;;;;5082139;28;20044;-96
2022/11/16 08:44:11;;;;;;;18.23;12.48;;;;;;;;;;5086024;28;20131;-95
2022/11/16 08:46:39;;;;;;;19.20;13.27;;;;;;;;;;5084781;28;20052;-95
2022/11/16 08:49:06;;;;;;;16.20;12.57;;;;;;;;;;5096568;28;20037;-94
2022/11/16 08:51:33;;;;;;;17.35;11.65;;;;;;;;;;5091196;28;20056;-95
2022/11/16 08:54:02;;;;;;;18.60;12.35;;;;;;;;;;5082179;28;20140;-95
2022/11/16 08:56:29;;;;;;;16.00;11.93;;;;;;;;;;5082648;28;20074;-95
2022/11/16 08:58:57;;;;;;;16.40;10.90;;;;;;;;;;5083421;28;20054;-94
2022/11/16 09:01:26;;;;;;;16.75;10.27;;;;;;;;;;5086792;28;20045;-95
2022/11/16 09:03:54;;;;;;;12.63;9.88;;;;;;;;;;5092027;28;20055;-95
2022/11/16 09:06:22;;;;;;;14.63;10.50;;;;;;;;;;5091011;28;20048;-95
2022/11/16 09:08:49;;;;;;;14.63;10.75;;;;;;;;;;5091925;28;20052;-95
2022/11/16 09:11:18;;;;;;;11.90;9.48;;;;;;;;;;5092714;28;20056;-95
2022/11/16 09:13:46;;;;;;;11.25;9.07;;;;;;;;;;5092408;28;20048;-95
2022/11/16 09:16:16;;;;;;;12.32;9.52;;;;;;;;;;5093240;28;20055;-94
2022/11/16 09:18:45;;;;;;;9.60;8.60;;;;;;;;;;5091322;28;20100;-96
2022/11/16 09:21:17;;;;;;;12.80;9.02;;;;;;;;;;5094250;28;20051;-94
2022/11/16 09:23:45;;;;;;;12.02;9.57;;;;;;;;;;5093543;28;20044;-94
2022/11/16 09:26:12;;;;;;;12.65;9.27;;;;;;;;;;5091030;28;20044;-95
2022/11/16 09:28:40;;;;;;;8.45;7.07;;;;;;;;;;5091352;28;20135;-95
2022/11/16 09:31:08;;;;;;;7.53;6.25;;;;;;;;;;5086968;28;20052;-95
2022/11/16 09:33:36;;;;;;;7.65;6.75;;;;;;;;;;5093127;28;20096;-95
2022/11/16 09:36:05;;;;;;;11.32;6.20;;;;;;;;;;5088528;28;20071;-95
2022/11/16 09:38:42;;;;;;;8.10;6.78;;;;;;;;;;5100649;22;20052;-94
2022/11/16 09:41:44;;;;;;;4.78;4.32;;;;;;;;;;5095179;28;20040;-94
2022/11/16 09:44:36;;;;;;;8.63;6.03;;;;;;;;;;5096073;28;20044;-94
2022/11/16 09:47:04;;;;;;;6.15;5.43;;;;;;;;;;5086622;28;20448;-94
2022/11/16 09:49:37;;;;;;;4.00;3.47;;;;;;;;;;5110658;28;20044;-94
2022/11/16 09:52:24;;;;;;;3.60;3.30;;;;;;;;;;5093838;28;20052;-94
2022/11/16 09:54:53;;;;;;;2.83;2.63;;;;;;;;;;5088929;28;20088;-95
2022/11/16 09:57:25;;;;;;;3.30;3.10;;;;;;;;;;5101556;22;20345;-87
2022/11/16 09:59:54;;;;;;;3.15;2.95;;;;;;;;;;5073982;28;20055;-89
2022/11/16 10:02:24;;;;;;;3.17;2.97;;;;;;;;;;5076578;28;20143;-88
2022/11/16 10:05:07;;;;;;;2.22;2.13;;;;;;;;;;5077792;28;20044;-87
2022/11/16 10:07:45;;;;;;;1.95;1.85;;;;;;;;;;5080559;28;20460;-88
2022/11/16 10:10:14;;;;;;;2.10;2.00;;;;;;;;;;5078097;28;20058;-88
2022/11/16 10:12:48;;;;;;;2.05;1.95;;;;;;;;;;5075603;28;20058;-88
2022/11/16 10:15:15;;;;;;;1.92;1.83;;;;;;;;;;5075703;28;20052;-88
2022/11/16 10:17:49;;;;;;;2.08;1.98;;;;;;;;;;5075754;28;20063;-87
2022/11/16 10:20:27;;;;;;;2.00;1.90;;;;;;;;;;5075515;28;20130;-88
2022/11/16 10:23:16;;;;;;;2.00;1.88;;;;;;;;;;5075579;28;20097;-88
2022/11/16 10:25:45;;;;;;;2.15;2.05;;;;;;;;;;5075431;28;20052;-87
2022/11/16 10:28:39;;;;;;;2.40;2.20;;;;;;;;;;5075751;28;20052;-86
2022/11/16 10:31:21;;;;;;;2.00;1.90;;;;;;;;;;5079546;28;20040;-88
2022/11/16 10:33:51;;;;;;;2.67;2.47;;;;;;;;;;5079465;28;20134;-88
2022/11/16 10:36:20;;;;;;;2.25;2.15;;;;;;;;;;5079410;28;20051;-88
2022/11/16 10:38:50;;;;;;;2.50;2.40;;;;;;;;;;5079599;28;20055;-87
2022/11/16 10:41:30;;;;;;;2.10;2.00;;;;;;;;;;5079489;28;20052;-87
2022/11/16 10:43:57;;;;;;;2.70;2.50;;;;;;;;;;5079396;28;20058;-87
2022/11/16 10:46:28;;;;;;;2.30;2.20;;;;;;;;;;5079106;28;20051;-88
2022/11/16 10:49:15;;;;;;;2.58;2.38;;;;;;;;;;5079875;28;20135;-87
2022/11/16 10:51:42;;;;;;;3.05;2.85;;;;;;;;;;5095956;28;20044;-87
2022/11/16 10:54:13;;;;;;;2.83;2.63;;;;;;;;;;5078894;28;20060;-87
2022/11/16 10:56:44;;;;;;;2.63;2.42;;;;;;;;;;5078849;28;20093;-88
2022/11/16 10:59:21;;;;;;;3.03;2.83;;;;;;;;;;5078708;28;20419;-88
2022/11/16 11:01:49;;;;;;;2.63;2.42;;;;;;;;;;5078996;28;20476;-88
2022/11/16 11:04:16;;;;;;;2.10;2.00;;;;;;;;;;5097149;28;20052;-87
2022/11/16 11:06:44;;;;;;;2.75;2.55;;;;;;;;;;5078843;28;20064;-88
2022/11/16 11:09:14;;;;;;;2.28;2.17;;;;;;;;;;5078500;28;20050;-87
2022/11/16 11:14:27;;;;;;;2.40;2.20;;;;;;;;;;5096471;28;20062;-88
2022/11/16 11:16:54;;;;;;;2.00;1.90;;;;;;;;;;5096585;28;20135;-87
2022/11/16 11:19:26;;;;;;;2.40;2.20;;;;;;;;;;5078337;28;20488;-88
2022/11/16 11:21:58;;;;;;;2.47;2.28;;;;;;;;;;5078962;28;20058;-87
2022/11/16 11:24:26;;;;;;;2.33;2.13;;;;;;;;;;5077817;28;20480;-88
2022/11/16 11:27:13;;;;;;;2.35;2.25;;;;;;;;;;5081033;28;20041;-87
2022/11/16 11:29:42;;;;;;;2.40;2.20;;;;;;;;;;5078620;28;20054;-88
2022/11/16 11:32:14;;;;;;;2.60;2.08;;;;;;;;;;5078384;28;20052;-87
2022/11/16 11:34:51;;;;;;;2.63;2.45;;;;;;;;;;5079797;28;20522;-87
2022/11/16 11:37:21;;;;;;;2.65;2.28;;;;;;;;;;5078380;28;20050;-88
2022/11/16 11:39:48;;;;;;;2.20;2.10;;;;;;;;;;5078315;28;20070;-87
2022/11/16 11:42:15;;;;;;;3.30;2.38;;;;;;;;;;5078189;28;20044;-87
2022/11/16 11:44:46;;;;;;;2.55;2.35;;;;;;;;;;5078409;28;20071;-86
2022/11/16 11:47:13;;;;;;;1.70;1.60;;;;;;;;;;5078323;28;20051;-88
2022/11/16 11:50:26;;;;;;;1.90;1.80;;;;;;;;;;5080790;28;20040;-87
2022/11/16 11:53:07;;;;;;;2.35;2.15;;;;;;;;;;5078136;28;20055;-87
2022/11/16 11:55:34;;;;;;;2.17;2.00;;;;;;;;;;5077822;28;20226;-87
2022/11/16 11:58:02;;;;;;;2.00;1.90;;;;;;;;;;5078083;28;20070;-88
2022/11/16 12:00:34;;;;;;;1.73;1.63;;;;;;;;;;5077862;28;20052;-88
2022/11/16 12:03:11;;;;;;;1.80;1.73;;;;;;;;;;5077922;28;20499;-88
2022/11/16 12:05:41;;;;;;;1.55;1.45;;;;;;;;;;5091984;28;20028;-87
2022/11/16 12:08:17;;;;;;;1.75;1.65;;;;;;;;;;5078357;28;20048;-89
2022/11/16 12:10:47;;;;;;;1.80;1.70;;;;;;;;;;5077655;28;20075;-87
2022/11/16 12:13:17;;;;;;;3.15;2.00;;;;;;;;;;5077273;28;20063;-88
2022/11/16 12:16:03;;;;;;;1.90;1.80;;;;;;;;;;5077229;28;20055;-87
2022/11/16 12:18:37;;;;;;;2.10;2.00;;;;;;;;;;5077401;28;20048;-87
2022/11/16 12:21:17;;;;;;;1.90;1.80;;;;;;;;;;5077434;28;20135;-88
2022/11/16 12:23:54;;;;;;;1.90;1.80;;;;;;;;;;5077300;28;20044;-87
2022/11/16 12:26:51;;;;;;;3.08;2.33;;;;;;;;;;5077275;28;20052;-87
2022/11/16 12:29:29;;;;;;;2.00;1.90;;;;;;;;;;5068740;28;20051;-87
2022/11/16 12:32:08;;;;;;;2.28;2.17;;;;;;;;;;5077314;28;20090;-87
2022/11/16 12:34:42;;;;;;;2.72;2.53;;;;;;;;;;5076592;28;20400;-88
2022/11/16 12:37:10;;;;;;;2.40;2.20;;;;;;;;;;5077216;28;20056;-87
2022/11/16 12:39:37;;;;;;;2.33;2.22;;;;;;;;;;5077254;28;20048;-87
2022/11/16 12:42:10;;;;;;;2.53;2.40;;;;;;;;;;5076962;28;20050;-87
2022/11/16 12:44:40;;;;;;;2.65;2.40;;;;;;;;;;5076775;28;20099;-87
2022/11/16 12:47:14;;;;;;;29.77;14.40;;;;;;;;;;5076671;28;20073;-87
2022/11/16 12:49:53;;;;;;;7.78;6.35;;;;;;;;;;5076825;28;20518;-88
2022/11/16 12:52:29;;;;;;;7.13;6.43;;;;;;;;;;5076266;28;20048;-87
2022/11/16 12:55:00;;;;;;;3.30;3.10;;;;;;;;;;5076811;28;20048;-88
2022/11/16 12:58:02;;;;;;;2.65;2.55;;;;;;;;;;5079475;28;20055;-87
2022/11/16 13:00:33;;;;;;;2.78;2.65;;;;;;;;;;5076959;28;20055;-87
2022/11/16 13:03:12;;;;;;;3.67;3.42;;;;;;;;;;5076572;28;20055;-87
2022/11/16 13:05:44;;;;;;;6.20;5.80;;;;;;;;;;5076070;28;20056;-87
2022/11/16 13:08:19;;;;;;;2.65;2.33;;;;;;;;;;5076112;28;20062;-87
2022/11/16 13:10:48;;;;;;;2.40;2.30;;;;;;;;;;5076377;28;20044;-87
2022/11/16 13:13:28;;;;;;;2.45;2.35;;;;;;;;;;5076164;28;20052;-87
2022/11/16 13:16:05;;;;;;;2.08;1.98;;;;;;;;;;5077306;28;20055;-88
2022/11/16 13:18:32;;;;;;;3.30;3.00;;;;;;;;;;5076814;28;20040;-87
2022/11/16 13:21:04;;;;;;;3.40;3.10;;;;;;;;;;5093648;28;20119;-88
2022/11/16 13:23:31;;;;;;;3.35;3.13;;;;;;;;;;5076744;28;20131;-87
2022/11/16 13:26:09;;;;;;;3.40;3.10;;;;;;;;;;5076367;28;20044;-87
2022/11/16 13:28:39;;;;;;;4.07;3.00;;;;;;;;;;5076692;28;20064;-87
2022/11/16 13:31:07;;;;;;;7.10;3.40;;;;;;;;;;5076266;28;20079;-87
2022/11/16 13:33:43;;;;;;;3.33;3.13;;;;;;;;;;5075613;28;20047;-88
2022/11/16 13:36:32;;;;;;;2.97;2.70;;;;;;;;;;5075861;28;20105;-86
2022/11/16 13:38:59;;;;;;;2.40;2.30;;;;;;;;;;5076123;28;20345;-87
2022/11/16 13:41:37;;;;;;;2.90;2.70;;;;;;;;;;5075866;28;20059;-88
2022/11/16 13:44:10;;;;;;;4.30;3.90;;;;;;;;;;5076387;28;20072;-87
2022/11/16 13:46:39;;;;;;;4.85;4.32;;;;;;;;;;5076590;28;20056;-87
2022/11/16 13:49:30;;;;;;;2.38;2.22;;;;;;;;;;5078356;28;20130;-87
2022/11/16 13:51:59;;;;;;;2.53;2.30;;;;;;;;;;5076042;28;20078;-88
2022/11/16 13:54:51;;;;;;;2.00;1.90;;;;;;;;;;5093622;28;20055;-88
2022/11/16 13:57:22;;;;;;;2.60;2.38;;;;;;;;;;5076189;28;20044;-88
2022/11/16 13:59:52;;;;;;;2.60;2.40;;;;;;;;;;5076214;28;20056;-88
2022/11/16 14:02:40;;;;;;;2.55;2.30;;;;;;;;;;5075992;28;20048;-87
2022/11/16 14:05:36;;;;;;;2.75;2.50;;;;;;;;;;5078281;28;20063;-88
2022/11/16 14:08:19;;;;;;;3.28;2.97;;;;;;;;;;5079904;28;20055;-89
2022/11/16 14:10:49;;;;;;;4.40;2.97;;;;;;;;;;5080138;28;20058;-88
2022/11/16 14:13:35;;;;;;;3.20;2.50;;;;;;;;;;5080007;28;20468;-88
2022/11/16 14:16:15;;;;;;;7.72;2.78;;;;;;;;;;5079902;28;20079;-88
2022/11/16 14:18:43;;;;;;;4.88;2.25;;;;;;;;;;5079771;28;20050;-88
2022/11/16 14:21:14;;;;;;;6.32;2.50;;;;;;;;;;5079732;28;20062;-88
2022/11/16 14:23:54;;;;;;;7.13;2.97;;;;;;;;;;5079833;28;20051;-88
2022/11/16 14:26:27;;;;;;;5.10;3.03;;;;;;;;;;5098391;28;20071;-88
2022/11/16 14:29:12;;;;;;;2.45;2.30;;;;;;;;;;5079773;28;20078;-88
2022/11/16 14:31:51;;;;;;;4.28;2.00;;;;;;;;;;5079753;28;20059;-88
2022/11/16 14:34:21;;;;;;;2.53;2.30;;;;;;;;;;5084703;28;20032;-90
2022/11/16 14:36:49;;;;;;;3.00;2.65;;;;;;;;;;5090029;28;20063;-87
2022/11/16 14:39:36;;;;;;;10.05;3.50;;;;;;;;;;5079182;28;20076;-88
2022/11/16 14:42:05;;;;;;;3.58;3.28;;;;;;;;;;5079102;28;20102;-89
2022/11/16 14:44:38;;;;;;;6.38;3.28;;;;;;;;;;5079317;28;20059;-88
2022/11/16 14:47:05;;;;;;;5.30;2.80;;;;;;;;;;5079277;28;20056;-88
2022/11/16 14:49:35;;;;;;;3.20;2.50;;;;;;;;;;5079568;28;20367;-88
2022/11/16 14:52:04;;;;;;;3.22;2.70;;;;;;;;;;5096943;28;20050;-88
2022/11/16 14:54:31;;;;;;;6.32;2.70;;;;;;;;;;5079387;28;20496;-88
2022/11/16 14:57:03;;;;;;;6.82;3.45;;;;;;;;;;5079333;28;20051;-88
2022/11/16 14:59:31;;;;;;;6.65;3.20;;;;;;;;;;5079041;28;20504;-88
2022/11/16 15:02:01;;;;;;;4.20;3.80;;;;;;;;;;5079014;28;20052;-88
2022/11/16 15:04:29;;;;;;;7.75;3.63;;;;;;;;;;5079058;28;20155;-88
2022/11/16 15:07:06;;;;;;;5.55;3.22;;;;;;;;;;5078880;28;20046;-88
2022/11/16 15:09:35;;;;;;;2.70;2.50;;;;;;;;;;5078816;28;20052;-87
2022/11/16 15:14:51;;;;;;;4.78;3.22;;;;;;;;;;5095967;28;20058;-88
2022/11/16 15:17:21;;;;;;;7.07;4.07;;;;;;;;;;5078844;28;20058;-88
2022/11/16 15:19:59;;;;;;;10.00;3.53;;;;;;;;;;5078877;28;20487;-88
2022/11/16 15:22:27;;;;;;;8.43;3.38;;;;;;;;;;5078692;28;20062;-88
2022/11/16 15:24:56;;;;;;;4.40;3.10;;;;;;;;;;5078360;28;20491;-87
2022/11/16 15:27:27;;;;;;;8.77;4.30;;;;;;;;;;5078412;28;20484;-88
2022/11/16 15:29:54;;;;;;;8.70;7.00;;;;;;;;;;5078542;28;20052;-88
2022/11/16 15:32:21;;;;;;;8.18;7.35;;;;;;;;;;5078658;28;20048;-88
2022/11/16 15:34:52;;;;;;;8.30;6.40;;;;;;;;;;5078337;28;20047;-88
2022/11/16 15:37:29;;;;;;;7.03;5.50;;;;;;;;;;5078408;28;20052;-89
2022/11/16 15:39:57;;;;;;;8.57;6.00;;;;;;;;;;5078315;28;20131;-88